createdAt,value
2022-09-10T00:02:00.281Z,53152.78
2022-09-10T00:04:28.468Z,51795.69
2022-09-10T00:06:56.268Z,51790.41
2022-09-10T00:09:24.047Z,51469.69
2022-09-10T00:11:52.728Z,52850.75
2022-09-10T00:14:22.749Z,56244.00
2022-09-10T00:16:50.883Z,58315.19
2022-09-10T00:19:19.514Z,65104.84
2022-09-10T00:21:47.021Z,61350.34
2022-09-10T00:24:15.193Z,59616.13
2022-09-10T00:26:42.742Z,54863.59
2022-09-10T00:29:15.081Z,57287.91
2022-09-10T00:31:43.052Z,58612.13
2022-09-10T00:34:12.881Z,55905.28
2022-09-10T00:36:41.847Z,56244.94
2022-09-10T00:39:11.723Z,55218.94
2022-09-10T00:41:41.365Z,53521.47
2022-09-10T00:44:47.814Z,54558.81
2022-09-10T00:47:20.912Z,55238.13
2022-09-10T00:49:51.580Z,54899.41
2022-09-10T00:52:20.009Z,55924.66
2022-09-10T00:54:48.904Z,57975.66
2022-09-10T00:57:21.206Z,62077.38
2022-09-10T00:59:54.754Z,65131.22
2022-09-10T01:02:23.695Z,66514.28
2022-09-10T01:04:51.561Z,71641.56
2022-09-10T01:07:21.362Z,74375.88
2022-09-10T01:09:49.270Z,74039.28
2022-09-10T01:12:28.744Z,78483.75
2022-09-10T01:15:09.243Z,78806.50
2022-09-10T01:17:55.874Z,81553.72
2022-09-10T01:20:46.883Z,78454.03
2022-09-10T01:23:41.352Z,76733.59
2022-09-10T01:26:23.411Z,73637.56
2022-09-10T01:29:01.191Z,70191.75
2022-09-10T01:31:34.756Z,67824.88
2022-09-10T01:34:07.289Z,72960.56
2022-09-10T01:36:39.488Z,76732.94
2022-09-10T01:39:07.640Z,75334.84
2022-09-10T01:41:35.069Z,73271.59
2022-09-10T01:44:10.828Z,72234.28
2022-09-10T01:46:48.982Z,68790.91
2022-09-10T01:49:28.471Z,66063.53
2022-09-10T01:52:13.080Z,65023.03
2022-09-10T01:54:47.599Z,63647.78
2022-09-10T01:57:27.784Z,58885.72
2022-09-10T02:00:05.843Z,58893.69
2022-09-10T02:02:38.053Z,59240.75
2022-09-10T02:05:07.695Z,60595.28
2022-09-10T02:07:37.508Z,60594.25
2022-09-10T02:10:07.289Z,60919.03
2022-09-10T02:12:35.713Z,59212.69
2022-09-10T02:15:07.879Z,57858.56
2022-09-10T02:17:38.198Z,58524.94
2022-09-10T02:20:11.707Z,57488.06
2022-09-10T02:22:43.217Z,55794.59
2022-09-10T02:25:11.274Z,56120.78
2022-09-10T02:27:39.208Z,54086.59
2022-09-10T02:30:08.975Z,54104.50
2022-09-10T02:32:39.683Z,54098.06
2022-09-10T02:35:08.168Z,53427.22
2022-09-10T02:37:35.795Z,53740.06
2022-09-10T02:40:04.480Z,52380.56
2022-09-10T02:42:32.368Z,50698.81
2022-09-10T02:45:00.195Z,50688.47
2022-09-10T02:47:30.039Z,50356.91
2022-09-10T02:49:57.550Z,50342.81
2022-09-10T02:52:25.818Z,48987.94
2022-09-10T02:54:53.163Z,48312.34
2022-09-10T02:57:21.047Z,47295.53
2022-09-10T02:59:48.415Z,46286.94
2022-09-10T03:02:15.837Z,45952.47
2022-09-10T03:04:44.513Z,45952.47
2022-09-10T03:07:11.956Z,45954.81
2022-09-10T03:09:41.080Z,44943.50
2022-09-10T03:12:08.758Z,44959.59
2022-09-10T03:14:36.091Z,45968.13
2022-09-10T03:17:03.957Z,46299.16
2022-09-10T03:19:31.312Z,45951.66
2022-09-10T03:21:59.980Z,44600.97
2022-09-10T03:24:28.349Z,45274.91
2022-09-10T03:26:55.769Z,45271.44
2022-09-10T03:29:24.334Z,45275.69
2022-09-10T03:31:52.057Z,45602.00
2022-09-10T03:34:20.397Z,44928.94
2022-09-10T03:36:48.173Z,44593.72
2022-09-10T03:39:18.368Z,44923.56
2022-09-10T03:41:46.294Z,43913.56
2022-09-10T03:44:13.692Z,44585.75
2022-09-10T03:46:41.271Z,44577.75
2022-09-10T03:49:08.931Z,44571.69
2022-09-10T03:51:36.377Z,43905.31
2022-09-10T03:54:03.757Z,44226.06
2022-09-10T03:56:32.650Z,43883.59
2022-09-10T03:59:00.253Z,42873.66
2022-09-10T04:01:28.050Z,42541.63
2022-09-10T04:03:56.702Z,42867.06
2022-09-10T04:06:24.052Z,42206.31
2022-09-10T04:08:52.868Z,42574.34
2022-09-10T04:11:20.427Z,44592.22
2022-09-10T04:13:49.092Z,45251.00
2022-09-10T04:16:18.075Z,45587.66
2022-09-10T04:18:45.488Z,45233.66
2022-09-10T04:21:13.105Z,43880.63
2022-09-10T04:23:41.189Z,43196.75
2022-09-10T04:26:15.634Z,42177.09
2022-09-10T04:28:42.955Z,41827.69
2022-09-10T04:31:12.243Z,40160.22
2022-09-10T04:33:40.360Z,40482.16
2022-09-10T04:36:08.350Z,39475.84
2022-09-10T04:38:40.091Z,39132.50
2022-09-10T04:41:07.619Z,38793.25
2022-09-10T04:43:35.004Z,36459.97
2022-09-10T04:46:02.966Z,37453.72
2022-09-10T04:48:33.259Z,37111.16
2022-09-10T04:51:15.660Z,36109.44
2022-09-10T04:53:43.868Z,36105.41
2022-09-10T04:56:12.519Z,35772.41
2022-09-10T04:58:41.114Z,36100.44
2022-09-10T05:01:08.930Z,35099.34
2022-09-10T05:03:37.794Z,34092.16
2022-09-10T05:06:05.868Z,34096.84
2022-09-10T05:08:33.376Z,34097.44
2022-09-10T05:11:02.847Z,33770.44
2022-09-10T05:13:31.578Z,33778.00
2022-09-10T05:15:59.646Z,34785.75
2022-09-10T05:18:27.180Z,34789.34
2022-09-10T05:20:55.940Z,35125.94
2022-09-10T05:23:23.286Z,34787.56
2022-09-10T05:25:50.688Z,34460.50
2022-09-10T05:28:18.032Z,34471.19
2022-09-10T05:30:50.837Z,35161.03
2022-09-10T05:33:18.992Z,36501.03
2022-09-10T05:35:49.140Z,37191.88
2022-09-10T05:38:17.946Z,41261.66
2022-09-10T05:40:45.601Z,45329.75
2022-09-10T05:43:12.969Z,48373.19
2022-09-10T05:45:40.364Z,50400.13
2022-09-10T05:48:07.731Z,49384.50
2022-09-10T05:50:35.076Z,48712.63
2022-09-10T05:53:02.433Z,49060.88
2022-09-10T05:55:33.022Z,50761.72
2022-09-10T05:58:00.353Z,50435.22
2022-09-10T06:00:27.760Z,52129.94
2022-09-10T06:02:57.426Z,54520.47
2022-09-10T06:05:24.907Z,54512.63
2022-09-10T06:07:52.303Z,54515.88
2022-09-10T06:10:19.814Z,56568.84
2022-09-10T06:12:49.566Z,60003.63
2022-09-10T06:15:17.154Z,63416.97
2022-09-10T06:17:44.628Z,70608.13
2022-09-10T06:20:13.945Z,79863.94
2022-09-10T06:22:41.553Z,89843.84
2022-09-10T06:25:09.919Z,97805.81
2022-09-10T06:27:37.577Z,112018.59
2022-09-10T06:30:07.286Z,127332.72
2022-09-10T06:32:34.689Z,150515.00
2022-09-10T06:35:02.064Z,154247.69
2022-09-10T06:37:33.414Z,154261.91
2022-09-10T06:40:01.039Z,154245.09
2022-09-10T06:42:28.405Z,154272.25
2022-09-10T06:44:55.913Z,154273.56
2022-09-10T06:48:19.166Z,154272.25
2022-09-10T06:50:12.399Z,154270.97
2022-09-10T06:52:39.732Z,154330.50
2022-09-10T06:55:08.226Z,154334.34
2022-09-10T06:57:35.550Z,154360.25
2022-09-10T07:00:03.345Z,154422.47
2022-09-10T07:02:32.267Z,154436.72
2022-09-10T07:04:59.648Z,154465.19
2022-09-10T07:07:27.015Z,154509.19
2022-09-10T07:09:55.391Z,154505.34
2022-09-10T07:12:22.734Z,154513.09
2022-09-10T07:14:50.099Z,154549.31
2022-09-10T07:17:17.456Z,154620.59
2022-09-10T07:19:46.849Z,154628.38
2022-09-10T07:22:14.173Z,154655.66
2022-09-10T07:24:41.528Z,154659.50
2022-09-10T07:27:11.134Z,154686.69
2022-09-10T07:29:38.489Z,154647.84
2022-09-10T07:32:05.934Z,154669.84
2022-09-10T07:34:33.300Z,154726.88
2022-09-10T07:37:02.023Z,154816.31
2022-09-10T07:39:29.372Z,154916.16
2022-09-10T07:41:56.753Z,154975.81
2022-09-10T07:44:24.088Z,154944.66
2022-09-10T07:46:52.907Z,155012.09
2022-09-10T07:49:20.708Z,155038.03
2022-09-10T07:51:48.153Z,155022.47
2022-09-10T07:54:17.248Z,155058.81
2022-09-10T07:56:45.132Z,154968.00
2022-09-10T07:59:14.028Z,155065.25
2022-09-10T08:01:41.431Z,155074.38
2022-09-10T08:04:09.738Z,155061.41
2022-09-10T08:06:41.295Z,155019.91
2022-09-10T08:09:08.879Z,154908.38
2022-09-10T08:11:37.656Z,154911.00
2022-09-10T08:14:05.097Z,154901.88
2022-09-10T08:16:33.019Z,154920.06
2022-09-10T08:19:00.647Z,154864.25
2022-09-10T08:21:30.140Z,154978.41
2022-09-10T08:23:57.525Z,155049.69
2022-09-10T08:26:27.948Z,155196.34
2022-09-10T08:28:57.750Z,155084.75
2022-09-10T08:31:26.488Z,155121.09
2022-09-10T08:33:56.731Z,155230.06
2022-09-10T08:36:25.632Z,155175.56
2022-09-10T08:38:58.285Z,155198.91
2022-09-10T08:41:36.273Z,155119.78
2022-09-10T08:44:11.576Z,155182.09
2022-09-10T08:46:46.372Z,155183.38
2022-09-10T08:49:17.500Z,155195.06
2022-09-10T08:51:49.988Z,155118.50
2022-09-10T08:54:22.538Z,154999.13
2022-09-10T08:56:50.831Z,155074.38
2022-09-10T08:59:24.134Z,155179.47
2022-09-10T09:01:55.486Z,155359.94
2022-09-10T09:04:32.936Z,155371.59
2022-09-10T09:07:04.119Z,155197.66
2022-09-10T09:09:31.475Z,155166.50
2022-09-10T09:12:07.199Z,155121.09
2022-09-10T09:14:49.447Z,155049.69
2022-09-10T09:17:29.263Z,155113.31
2022-09-10T09:20:05.985Z,155193.75
2022-09-10T09:22:43.971Z,155309.28
2022-09-10T09:25:22.725Z,155339.13
2022-09-10T09:27:53.481Z,155361.19
2022-09-10T09:30:24.712Z,155367.69
2022-09-10T09:32:52.377Z,155468.91
2022-09-10T09:35:28.987Z,155479.34
2022-09-10T09:38:16.199Z,155541.69
2022-09-10T09:40:47.975Z,155674.16
2022-09-10T09:43:25.217Z,155804.16
2022-09-10T09:45:54.353Z,155866.53
2022-09-10T09:48:24.431Z,155903.00
2022-09-10T09:50:56.399Z,155936.78
2022-09-10T09:53:26.176Z,155891.22
2022-09-10T09:55:55.987Z,155657.31
2022-09-10T09:58:34.690Z,155546.91
2022-09-10T10:01:21.557Z,155522.25
2022-09-10T10:03:54.904Z,155484.50
2022-09-10T10:06:25.538Z,155510.53
2022-09-10T10:09:07.445Z,155471.53
2022-09-10T10:11:47.785Z,155513.13
2022-09-10T10:14:38.112Z,155601.47
2022-09-10T10:17:30.639Z,155643.03
2022-09-10T10:20:01.144Z,155580.66
2022-09-10T10:22:31.900Z,155667.69
2022-09-10T10:25:00.377Z,155675.47
2022-09-10T10:27:32.733Z,155792.50
2022-09-10T10:30:22.463Z,155726.22
2022-09-10T10:32:54.625Z,155661.19
2022-09-10T10:35:44.125Z,155653.41
2022-09-10T10:38:26.693Z,155806.78
2022-09-10T10:41:07.404Z,155830.16
2022-09-10T10:43:47.607Z,155780.81
2022-09-10T10:46:20.745Z,155770.38
2022-09-10T10:49:05.372Z,155680.69
2022-09-10T10:51:45.603Z,155630.03
2022-09-10T10:54:37.393Z,155611.84
2022-09-10T10:57:17.329Z,155624.81
2022-09-10T10:59:55.299Z,155747.00
2022-09-10T11:02:34.170Z,155750.91
2022-09-10T11:05:16.104Z,155811.94
2022-09-10T11:07:45.716Z,155860.06
2022-09-10T11:10:21.819Z,155705.38
2022-09-10T11:12:55.360Z,155606.63
2022-09-10T11:15:30.245Z,155544.31
2022-09-10T11:18:06.137Z,155515.72
2022-09-10T11:20:42.398Z,155467.66
2022-09-10T11:23:21.552Z,155335.22
2022-09-10T11:25:56.145Z,155394.94
2022-09-10T11:28:29.711Z,155461.16
2022-09-10T11:31:01.797Z,155635.22
2022-09-10T11:33:34.287Z,155710.63
2022-09-10T11:36:11.616Z,155676.78
2022-09-10T11:38:48.530Z,155600.16
2022-09-10T11:41:19.600Z,155563.81
2022-09-10T11:43:53.018Z,155504.00
2022-09-10T11:46:25.456Z,155497.50
2022-09-10T11:49:01.670Z,155510.53
2022-09-10T11:51:33.605Z,155419.59
2022-09-10T11:54:02.926Z,155401.41
2022-09-10T11:56:43.946Z,155424.81
2022-09-10T11:59:26.953Z,155572.88
2022-09-10T12:02:23.350Z,155624.81
2022-09-10T12:05:00.588Z,155706.72
2022-09-10T12:07:46.416Z,155614.44
2022-09-10T12:10:23.905Z,155559.91
2022-09-10T12:12:51.316Z,155478.03
2022-09-10T12:15:21.265Z,155379.38
2022-09-10T12:17:54.281Z,155372.91
2022-09-10T12:20:28.440Z,155348.19
2022-09-10T12:22:57.707Z,155340.44
2022-09-10T12:25:33.873Z,155392.34
2022-09-10T12:28:05.161Z,155378.06
2022-09-10T12:30:53.561Z,155432.59
2022-09-10T12:34:06.086Z,155520.94
2022-09-10T12:37:17.102Z,155594.94
2022-09-10T12:39:46.119Z,155600.16
2022-09-10T12:42:36.684Z,155583.25
2022-09-10T12:45:04.424Z,155532.63
2022-09-10T12:47:44.167Z,155362.47
2022-09-10T12:50:36.078Z,155487.13
2022-09-10T12:53:34.958Z,155646.91
2022-09-10T12:56:21.459Z,155604.06
2022-09-10T12:59:05.343Z,155537.78
2022-09-10T13:01:41.872Z,155627.44
2022-09-10T13:04:24.469Z,155715.78
2022-09-10T13:06:55.812Z,155749.59
2022-09-10T13:09:26.294Z,155689.75
2022-09-10T13:11:58.626Z,155701.44
2022-09-10T13:14:30.777Z,155722.31
2022-09-10T13:16:58.252Z,155791.19
2022-09-10T13:19:51.553Z,155727.47
2022-09-10T13:23:03.911Z,155772.97
2022-09-10T13:25:41.457Z,155765.19
2022-09-10T13:28:42.831Z,155708.03
2022-09-10T13:31:19.456Z,155745.69
2022-09-10T13:34:10.610Z,155710.63
2022-09-10T13:36:48.026Z,155772.97
2022-09-10T13:39:37.554Z,155758.69
2022-09-10T13:42:20.667Z,155757.38
2022-09-10T13:45:15.172Z,155731.41
2022-09-10T13:47:48.327Z,155670.31
2022-09-10T13:50:22.759Z,155661.19
2022-09-10T13:52:56.744Z,155619.63
2022-09-10T13:55:27.025Z,155606.63
2022-09-10T13:57:59.524Z,155609.22
2022-09-10T14:00:30.964Z,155627.44
2022-09-10T14:03:01.516Z,155565.06
2022-09-10T14:05:34.465Z,155544.31
2022-09-10T14:08:06.976Z,155591.09
2022-09-10T14:10:49.417Z,155589.78
2022-09-10T14:13:22.679Z,155593.66
2022-09-10T14:15:52.150Z,155606.63
2022-09-10T14:18:21.706Z,155580.66
2022-09-10T14:20:49.324Z,155580.66
2022-09-10T14:23:17.920Z,155589.78
2022-09-10T14:25:46.087Z,155500.09
2022-09-10T14:28:23.399Z,155442.97
2022-09-10T14:30:52.479Z,155404.03
2022-09-10T14:33:25.293Z,155383.28
2022-09-10T14:35:53.695Z,155424.81
2022-09-10T14:38:24.236Z,155480.66
2022-09-10T14:40:57.840Z,155528.72
2022-09-10T14:43:31.714Z,155562.50
2022-09-10T14:45:59.662Z,155583.25
2022-09-10T14:48:33.438Z,155598.84
2022-09-10T14:51:10.476Z,155515.72
2022-09-10T14:53:38.401Z,155461.16
2022-09-10T14:56:11.108Z,155404.03
2022-09-10T14:58:38.472Z,155388.44
2022-09-10T15:01:05.927Z,155346.91
2022-09-10T15:03:35.635Z,155318.38
2022-09-10T15:06:02.991Z,155310.56
2022-09-10T15:08:30.344Z,155318.38
2022-09-10T15:10:57.784Z,155327.44
2022-09-10T15:13:25.172Z,155366.38
2022-09-10T15:15:53.726Z,155305.41
2022-09-10T15:18:22.534Z,155283.28
2022-09-10T15:20:51.276Z,155258.63
2022-09-10T15:23:21.686Z,155228.78
2022-09-10T15:25:51.817Z,155217.09
2022-09-10T15:28:19.173Z,155246.94
2022-09-10T15:30:46.569Z,155243.03
2022-09-10T15:33:14.973Z,155271.59
2022-09-10T15:35:42.435Z,155280.66
2022-09-10T15:38:13.594Z,155206.72
2022-09-10T15:40:41.033Z,155211.88
2022-09-10T15:43:08.577Z,155184.66
2022-09-10T15:45:37.030Z,155191.16
2022-09-10T15:48:05.113Z,155125.00
2022-09-10T15:50:32.480Z,155154.84
2022-09-10T15:53:00.444Z,155105.50
2022-09-10T15:55:29.183Z,155088.66
2022-09-10T15:57:56.534Z,155134.06
2022-09-10T16:00:23.880Z,155118.50
2022-09-10T16:02:52.990Z,155078.22
2022-09-10T16:05:21.977Z,155115.94
2022-09-10T16:07:49.582Z,155121.09
2022-09-10T16:10:17.595Z,155078.22
2022-09-10T16:12:46.288Z,155045.84
2022-09-10T16:15:13.718Z,155028.97
2022-09-10T16:17:42.153Z,155105.50
2022-09-10T16:20:10.513Z,155148.34
2022-09-10T16:22:37.868Z,155191.16
2022-09-10T16:25:08.760Z,155154.84
2022-09-10T16:27:43.067Z,155141.88
2022-09-10T16:30:13.656Z,155131.47
2022-09-10T16:32:41.011Z,155118.50
2022-09-10T16:35:09.423Z,155123.69
2022-09-10T16:37:37.372Z,155131.47
2022-09-10T16:40:05.954Z,155184.66
2022-09-10T16:42:33.332Z,155126.31
2022-09-10T16:45:00.813Z,155154.84
2022-09-10T16:47:29.504Z,155143.19
2022-09-10T16:49:56.852Z,155030.25
2022-09-10T16:52:24.284Z,155030.25
2022-09-10T16:54:52.671Z,155014.69
2022-09-10T16:57:21.233Z,155022.47
2022-09-10T16:59:48.871Z,154987.47
2022-09-10T17:02:16.381Z,154940.78
2022-09-10T17:04:45.058Z,154955.03
2022-09-10T17:07:12.404Z,154938.22
2022-09-10T17:09:39.792Z,154894.13
2022-09-10T17:12:08.686Z,154856.50
2022-09-10T17:14:36.066Z,154822.75
2022-09-10T17:17:03.411Z,154808.50
2022-09-10T17:19:30.757Z,154791.66
2022-09-10T17:21:59.423Z,154774.84
2022-09-10T17:24:28.242Z,154747.63
2022-09-10T17:26:56.164Z,154761.88
2022-09-10T17:29:25.612Z,154724.25
2022-09-10T17:34:39.384Z,154782.59
2022-09-10T17:37:09.214Z,154724.25
2022-09-10T17:39:36.640Z,154711.31
2022-09-10T17:42:04.341Z,154710.00
2022-09-10T17:44:31.833Z,154699.66
2022-09-10T17:47:01.451Z,154675.03
2022-09-10T17:49:28.879Z,154649.13
2022-09-10T17:51:56.671Z,154703.56
2022-09-10T17:54:25.341Z,154662.09
2022-09-10T17:56:52.719Z,154576.53
2022-09-10T17:59:21.850Z,154576.53
2022-09-10T18:01:49.230Z,154579.13
2022-09-10T18:04:16.603Z,154548.03
2022-09-10T18:06:47.835Z,154496.25
2022-09-10T18:09:17.862Z,154493.63
2022-09-10T18:11:47.364Z,154465.19
2022-09-10T18:14:18.388Z,154461.28
2022-09-10T18:16:47.002Z,154465.19
2022-09-10T18:19:16.716Z,154457.41
2022-09-10T18:21:46.105Z,154434.09
2022-09-10T18:24:15.045Z,154449.66
2022-09-10T18:26:44.943Z,154472.94
2022-09-10T18:29:15.459Z,154403.03
2022-09-10T18:31:44.777Z,154374.50
2022-09-10T18:34:17.562Z,154371.88
2022-09-10T18:36:48.323Z,154395.28
2022-09-10T18:39:15.987Z,154360.25
2022-09-10T18:41:44.122Z,154333.06
2022-09-10T18:44:16.406Z,154353.81
2022-09-10T18:46:45.410Z,154349.91
2022-09-10T18:49:17.903Z,154348.59
2022-09-10T18:51:48.445Z,154348.59
2022-09-10T18:54:17.767Z,154353.81
2022-09-10T18:56:47.283Z,153108.97
2022-09-10T18:59:19.982Z,144846.81
2022-09-10T19:01:48.532Z,144498.13
2022-09-10T19:04:18.919Z,137129.00
2022-09-10T19:06:47.566Z,131186.91
2022-09-10T19:09:16.740Z,124545.72
2022-09-10T19:11:46.905Z,122474.44
2022-09-10T19:14:19.133Z,121799.84
2022-09-10T19:16:47.980Z,123521.38
2022-09-10T19:19:18.345Z,118287.59
2022-09-10T19:21:46.308Z,118319.31
2022-09-10T19:24:14.305Z,115869.59
2022-09-10T19:26:42.436Z,119050.59
2022-09-10T19:29:11.994Z,131944.63
2022-09-10T19:31:40.919Z,132282.22
2022-09-10T19:34:09.258Z,134738.44
2022-09-10T19:36:37.024Z,137529.97
2022-09-10T19:39:06.951Z,134385.00
2022-09-10T19:41:35.580Z,129144.53
2022-09-10T19:44:03.722Z,134720.34
2022-09-10T19:46:31.205Z,131937.97
2022-09-10T19:49:01.409Z,136851.06
2022-09-10T19:51:31.111Z,141027.38
2022-09-10T19:54:01.086Z,135440.91
2022-09-10T19:56:31.488Z,132976.28
2022-09-10T19:58:59.876Z,131244.06
2022-09-10T20:01:31.132Z,134366.94
2022-09-10T20:04:01.603Z,127017.72
2022-09-10T20:06:30.371Z,121808.03
2022-09-10T20:08:57.758Z,120383.78
2022-09-10T20:11:26.639Z,116225.25
2022-09-10T20:13:56.189Z,115170.16
2022-09-10T20:16:25.016Z,112031.72
2022-09-10T20:18:52.856Z,110342.59
2022-09-10T20:21:27.876Z,108230.50
2022-09-10T20:23:56.648Z,103374.25
2022-09-10T20:26:25.772Z,98877.78
2022-09-10T20:28:55.610Z,97849.31
2022-09-10T20:31:24.356Z,94726.00
2022-09-10T20:33:55.259Z,93008.88
2022-09-10T20:36:25.205Z,95088.19
2022-09-10T20:38:53.386Z,97161.88
2022-09-10T20:41:21.191Z,95784.06
2022-09-10T20:43:51.649Z,104812.88
2022-09-10T20:46:21.964Z,110660.25
2022-09-10T20:48:50.855Z,114486.25
2022-09-10T20:51:20.122Z,115148.91
2022-09-10T20:53:49.252Z,108195.09
2022-09-10T20:56:18.544Z,107212.25
2022-09-10T20:58:47.748Z,104420.63
2022-09-10T21:01:18.747Z,99593.84
2022-09-10T21:03:47.479Z,98857.88
2022-09-10T21:06:17.677Z,90255.91
2022-09-10T21:08:45.063Z,86130.38
2022-09-10T21:11:15.384Z,83039.13
2022-09-10T21:13:44.747Z,79958.63
2022-09-10T21:16:13.692Z,80615.94
2022-09-10T21:18:42.496Z,75451.53
2022-09-10T21:21:11.468Z,71001.91
2022-09-10T21:23:43.604Z,68605.72
2022-09-10T21:26:11.977Z,68602.25
2022-09-10T21:28:41.431Z,66556.34
2022-09-10T21:31:10.420Z,66201.31
2022-09-10T21:33:38.167Z,66194.06
2022-09-10T21:36:07.677Z,66208.56
2022-09-10T21:38:35.919Z,68593.00
2022-09-10T21:41:05.129Z,67549.56
2022-09-10T21:43:34.508Z,66874.88
2022-09-10T21:46:05.118Z,69282.50
2022-09-10T21:48:35.782Z,72019.94
2022-09-10T21:51:05.607Z,75124.19
2022-09-10T21:53:33.788Z,80597.00
2022-09-10T21:56:02.855Z,78487.69
2022-09-10T21:58:33.038Z,74357.75
2022-09-10T22:01:00.609Z,69227.69
2022-09-10T22:03:31.049Z,67179.69
2022-09-10T22:06:06.180Z,65112.53
2022-09-10T22:08:34.064Z,63426.63
2022-09-10T22:11:07.349Z,63422.34
2022-09-10T22:13:34.850Z,64440.13
2022-09-10T22:16:02.714Z,65112.53
2022-09-10T22:18:31.661Z,64770.88
2022-09-10T22:21:00.810Z,64088.78
2022-09-10T22:23:29.979Z,65117.47
2022-09-10T22:26:03.800Z,66466.63
2022-09-10T22:28:34.971Z,66480.09
2022-09-10T22:31:07.298Z,66452.59
2022-09-10T22:33:38.003Z,64409.69
2022-09-10T22:36:13.927Z,64739.19
2022-09-10T22:38:41.790Z,60993.19
2022-09-10T22:41:10.140Z,60317.25
2022-09-10T22:43:38.544Z,58961.44
2022-09-10T22:46:07.700Z,58276.25
2022-09-10T22:48:37.811Z,57252.53
2022-09-10T22:51:05.653Z,56588.50
2022-09-10T22:53:33.209Z,57949.66
2022-09-10T22:56:00.729Z,57934.47
2022-09-10T22:58:28.068Z,57265.13
2022-09-10T23:00:55.977Z,57611.78
2022-09-10T23:03:23.606Z,60667.03
2022-09-10T23:06:03.403Z,59636.78
2022-09-10T23:08:31.981Z,58287.59
2022-09-10T23:11:08.590Z,57598.13
2022-09-10T23:13:36.122Z,57919.78
2022-09-10T23:16:11.199Z,55541.16
2022-09-10T23:18:39.530Z,53859.56
2022-09-10T23:21:09.247Z,54875.69
2022-09-10T23:23:37.013Z,53531.00
2022-09-10T23:26:06.530Z,53521.03
2022-09-10T23:28:34.026Z,53185.69
2022-09-10T23:31:10.633Z,52845.81
2022-09-10T23:33:37.995Z,53196.03
2022-09-10T23:36:05.512Z,53170.34
2022-09-10T23:38:36.313Z,51828.22
2022-09-10T23:41:03.787Z,51820.28
2022-09-10T23:43:31.145Z,51485.88
2022-09-10T23:45:59.595Z,51832.59
2022-09-10T23:48:27.266Z,52527.34
2022-09-10T23:50:55.337Z,57970.75
2022-09-10T23:53:25.226Z,58292.53
2022-09-10T23:55:54.349Z,56934.03
2022-09-10T23:58:22.339Z,56253.03
